sensor_id;sensor_type;location;lat;lon;timestamp;pressure;altitude;pressure_sealevel;temperature;humidity
41102;BME280;26845;50.190;19.178;2022-07-04T00:00:49;98793.91;;;17.51;69.73
41102;BME280;26845;50.190;19.178;2022-07-04T00:03:15;98790.43;;;17.48;69.79
41102;BME280;26845;50.190;19.178;2022-07-04T00:05:41;98791.72;;;17.44;69.94
41102;BME280;26845;50.190;19.178;2022-07-04T00:08:07;98786.83;;;17.41;69.91
41102;BME280;26845;50.190;19.178;2022-07-04T00:10:33;98782.32;;;17.37;70.27
41102;BME280;26845;50.190;19.178;2022-07-04T00:12:59;98780.11;;;17.36;70.08
41102;BME280;26845;50.190;19.178;2022-07-04T00:15:25;98778.23;;;17.34;70.15
41102;BME280;26845;50.190;19.178;2022-07-04T00:17:51;98778.59;;;17.33;70.31
41102;BME280;26845;50.190;19.178;2022-07-04T00:20:17;98780.72;;;17.29;70.25
41102;BME280;26845;50.190;19.178;2022-07-04T00:22:44;98779.09;;;17.28;70.26
41102;BME280;26845;50.190;19.178;2022-07-04T00:25:10;98780.42;;;17.25;70.41
41102;BME280;26845;50.190;19.178;2022-07-04T00:27:37;98786.77;;;17.22;70.43
41102;BME280;26845;50.190;19.178;2022-07-04T00:30:04;98787.11;;;17.20;70.40
41102;BME280;26845;50.190;19.178;2022-07-04T00:32:31;98793.32;;;17.20;70.70
41102;BME280;26845;50.190;19.178;2022-07-04T00:34:57;98789.78;;;17.23;71.02
41102;BME280;26845;50.190;19.178;2022-07-04T00:37:23;98782.85;;;17.26;70.96
41102;BME280;26845;50.190;19.178;2022-07-04T00:39:49;98787.74;;;17.29;70.81
41102;BME280;26845;50.190;19.178;2022-07-04T00:42:15;98791.73;;;17.28;70.80
41102;BME280;26845;50.190;19.178;2022-07-04T00:44:42;98783.06;;;17.27;70.87
41102;BME280;26845;50.190;19.178;2022-07-04T00:47:08;98785.88;;;17.27;70.93
41102;BME280;26845;50.190;19.178;2022-07-04T00:49:34;98789.66;;;17.25;70.99
41102;BME280;26845;50.190;19.178;2022-07-04T00:52:01;98782.17;;;17.23;71.24
41102;BME280;26845;50.190;19.178;2022-07-04T00:54:30;98780.77;;;17.23;71.21
41102;BME280;26845;50.190;19.178;2022-07-04T00:56:58;98776.34;;;17.22;71.24
41102;BME280;26845;50.190;19.178;2022-07-04T00:59:26;98777.96;;;17.23;71.34
41102;BME280;26845;50.190;19.178;2022-07-04T01:01:52;98779.95;;;17.23;71.26
41102;BME280;26845;50.190;19.178;2022-07-04T01:04:19;98784.89;;;17.20;71.30
41102;BME280;26845;50.190;19.178;2022-07-04T01:06:45;98787.63;;;17.10;71.29
41102;BME280;26845;50.190;19.178;2022-07-04T01:09:12;98782.31;;;17.05;71.45
41102;BME280;26845;50.190;19.178;2022-07-04T01:11:38;98775.17;;;17.01;71.60
41102;BME280;26845;50.190;19.178;2022-07-04T01:14:04;98771.93;;;16.99;71.57
41102;BME280;26845;50.190;19.178;2022-07-04T01:16:33;98769.59;;;16.95;71.47
41102;BME280;26845;50.190;19.178;2022-07-04T01:19:00;98770.10;;;16.91;71.36
41102;BME280;26845;50.190;19.178;2022-07-04T01:21:26;98771.77;;;16.86;71.41
41102;BME280;26845;50.190;19.178;2022-07-04T01:23:52;98770.62;;;16.81;71.43
41102;BME280;26845;50.190;19.178;2022-07-04T01:26:18;98775.89;;;16.82;71.46
41102;BME280;26845;50.190;19.178;2022-07-04T01:28:45;98770.62;;;16.81;71.49
41102;BME280;26845;50.190;19.178;2022-07-04T01:31:11;98774.73;;;16.77;71.57
41102;BME280;26845;50.190;19.178;2022-07-04T01:33:37;98774.37;;;16.73;71.59
41102;BME280;26845;50.190;19.178;2022-07-04T01:36:04;98772.16;;;16.72;71.86
41102;BME280;26845;50.190;19.178;2022-07-04T01:38:30;98766.08;;;16.70;71.81
41102;BME280;26845;50.190;19.178;2022-07-04T01:40:56;98767.98;;;16.66;71.96
41102;BME280;26845;50.190;19.178;2022-07-04T01:43:22;98760.03;;;16.62;72.06
41102;BME280;26845;50.190;19.178;2022-07-04T01:45:48;98760.03;;;16.62;72.06
41102;BME280;26845;50.190;19.178;2022-07-04T01:48:14;98753.52;;;16.58;72.32
41102;BME280;26845;50.190;19.178;2022-07-04T01:50:40;98762.66;;;16.55;72.45
41102;BME280;26845;50.190;19.178;2022-07-04T01:53:06;98768.77;;;16.51;72.37
41102;BME280;26845;50.190;19.178;2022-07-04T01:55:32;98769.83;;;16.46;72.31
41102;BME280;26845;50.190;19.178;2022-07-04T01:57:58;98778.86;;;16.39;72.49
41102;BME280;26845;50.190;19.178;2022-07-04T02:00:26;98786.23;;;16.32;72.53
41102;BME280;26845;50.190;19.178;2022-07-04T02:03:10;98786.48;;;16.27;72.67
41102;BME280;26845;50.190;19.178;2022-07-04T02:05:36;98790.59;;;16.23;72.62
41102;BME280;26845;50.190;19.178;2022-07-04T02:08:04;98797.84;;;16.18;72.69
41102;BME280;26845;50.190;19.178;2022-07-04T02:10:30;98810.36;;;16.14;72.77
41102;BME280;26845;50.190;19.178;2022-07-04T02:12:56;98799.16;;;16.08;72.84
41102;BME280;26845;50.190;19.178;2022-07-04T02:15:38;98805.70;;;16.06;72.93
41102;BME280;26845;50.190;19.178;2022-07-04T02:18:07;98804.41;;;16.04;72.90
41102;BME280;26845;50.190;19.178;2022-07-04T02:20:35;98807.34;;;16.01;72.82
41102;BME280;26845;50.190;19.178;2022-07-04T02:23:02;98794.84;;;15.99;72.94
41102;BME280;26845;50.190;19.178;2022-07-04T02:25:29;98794.37;;;15.96;72.94
41102;BME280;26845;50.190;19.178;2022-07-04T02:27:55;98791.34;;;15.95;72.97
41102;BME280;26845;50.190;19.178;2022-07-04T02:30:23;98793.82;;;15.91;72.99
41102;BME280;26845;50.190;19.178;2022-07-04T02:32:49;98787.49;;;15.88;73.08
41102;BME280;26845;50.190;19.178;2022-07-04T02:35:16;98785.98;;;15.84;73.11
41102;BME280;26845;50.190;19.178;2022-07-04T02:37:42;98786.91;;;15.82;73.17
41102;BME280;26845;50.190;19.178;2022-07-04T02:40:10;98784.82;;;15.79;73.17
41102;BME280;26845;50.190;19.178;2022-07-04T02:42:37;98787.88;;;15.74;73.12
41102;BME280;26845;50.190;19.178;2022-07-04T02:45:07;98787.52;;;15.69;73.09
41102;BME280;26845;50.190;19.178;2022-07-04T02:47:36;98791.70;;;15.63;73.09
41102;BME280;26845;50.190;19.178;2022-07-04T02:50:03;98801.52;;;15.57;73.11
41102;BME280;26845;50.190;19.178;2022-07-04T02:52:29;98798.24;;;15.49;73.06
41102;BME280;26845;50.190;19.178;2022-07-04T02:54:55;98791.69;;;15.45;73.36
41102;BME280;26845;50.190;19.178;2022-07-04T02:57:21;98785.98;;;15.41;73.48
41102;BME280;26845;50.190;19.178;2022-07-04T02:59:47;98790.41;;;15.42;73.63
41102;BME280;26845;50.190;19.178;2022-07-04T03:02:13;98785.53;;;15.45;73.67
41102;BME280;26845;50.190;19.178;2022-07-04T03:04:39;98786.34;;;15.46;73.70
41102;BME280;26845;50.190;19.178;2022-07-04T03:07:07;98775.14;;;15.46;73.71
41102;BME280;26845;50.190;19.178;2022-07-04T03:09:33;98772.79;;;15.42;73.72
41102;BME280;26845;50.190;19.178;2022-07-04T03:12:03;98778.28;;;15.38;73.83
41102;BME280;26845;50.190;19.178;2022-07-04T03:14:29;98772.45;;;15.37;73.95
41102;BME280;26845;50.190;19.178;2022-07-04T03:16:55;98773.27;;;15.38;74.00
41102;BME280;26845;50.190;19.178;2022-07-04T03:19:21;98776.41;;;15.36;73.93
41102;BME280;26845;50.190;19.178;2022-07-04T03:21:47;98774.05;;;15.07;74.34
41102;BME280;26845;50.190;19.178;2022-07-04T03:24:12;98774.05;;;15.07;74.34
41102;BME280;26845;50.190;19.178;2022-07-04T03:26:38;98776.39;;;15.05;74.39
41102;BME280;26845;50.190;19.178;2022-07-04T03:29:04;98769.84;;;15.07;74.58
41102;BME280;26845;50.190;19.178;2022-07-04T03:31:30;98776.40;;;15.12;74.70
41102;BME280;26845;50.190;19.178;2022-07-04T03:33:56;98783.14;;;15.17;74.72
41102;BME280;26845;50.190;19.178;2022-07-04T03:36:22;98775.59;;;15.17;74.72
41102;BME280;26845;50.190;19.178;2022-07-04T03:38:48;98782.00;;;15.18;74.88
41102;BME280;26845;50.190;19.178;2022-07-04T03:41:14;98787.59;;;15.18;74.95
41102;BME280;26845;50.190;19.178;2022-07-04T03:43:40;98798.20;;;15.18;75.04
41102;BME280;26845;50.190;19.178;2022-07-04T03:46:06;98796.58;;;15.17;75.08
41102;BME280;26845;50.190;19.178;2022-07-04T03:48:32;98803.58;;;15.17;75.06
41102;BME280;26845;50.190;19.178;2022-07-04T03:50:59;98801.48;;;15.14;75.30
41102;BME280;26845;50.190;19.178;2022-07-04T03:53:25;98800.67;;;15.20;75.40
41102;BME280;26845;50.190;19.178;2022-07-04T03:55:51;98802.08;;;15.26;75.34
41102;BME280;26845;50.190;19.178;2022-07-04T03:58:16;98801.97;;;15.35;75.37
41102;BME280;26845;50.190;19.178;2022-07-04T04:00:43;98801.48;;;15.45;75.36
41102;BME280;26845;50.190;19.178;2022-07-04T04:03:09;98806.87;;;15.50;75.38
41102;BME280;26845;50.190;19.178;2022-07-04T04:05:54;98811.32;;;15.57;75.40
41102;BME280;26845;50.190;19.178;2022-07-04T04:08:20;98810.73;;;15.64;75.52
41102;BME280;26845;50.190;19.178;2022-07-04T04:10:46;98813.80;;;15.71;75.60
41102;BME280;26845;50.190;19.178;2022-07-04T04:13:18;98813.55;;;15.76;75.63
41102;BME280;26845;50.190;19.178;2022-07-04T04:15:44;98811.33;;;15.82;75.74
41102;BME280;26845;50.190;19.178;2022-07-04T04:18:10;98806.99;;;15.90;75.84
41102;BME280;26845;50.190;19.178;2022-07-04T04:20:39;98801.84;;;15.99;75.85
41102;BME280;26845;50.190;19.178;2022-07-04T04:23:06;98801.96;;;16.08;76.02
41102;BME280;26845;50.190;19.178;2022-07-04T04:25:32;98794.94;;;16.14;76.08
41102;BME280;26845;50.190;19.178;2022-07-04T04:27:58;98798.75;;;16.22;76.12
41102;BME280;26845;50.190;19.178;2022-07-04T04:30:24;98791.75;;;16.28;76.20
41102;BME280;26845;50.190;19.178;2022-07-04T04:32:50;98780.50;;;16.34;76.32
41102;BME280;26845;50.190;19.178;2022-07-04T04:35:19;98777.89;;;16.41;76.46
41102;BME280;26845;50.190;19.178;2022-07-04T04:37:45;98774.81;;;16.53;76.58
41102;BME280;26845;50.190;19.178;2022-07-04T04:40:11;98771.25;;;16.68;76.47
41102;BME280;26845;50.190;19.178;2022-07-04T04:42:39;98771.25;;;16.68;76.47
41102;BME280;26845;50.190;19.178;2022-07-04T04:45:06;98783.13;;;16.83;76.94
41102;BME280;26845;50.190;19.178;2022-07-04T04:47:32;98782.23;;;16.95;77.07
41102;BME280;26845;50.190;19.178;2022-07-04T04:49:58;98785.42;;;17.09;77.08
41102;BME280;26845;50.190;19.178;2022-07-04T04:52:24;98782.90;;;17.20;77.27
41102;BME280;26845;50.190;19.178;2022-07-04T04:54:50;98781.39;;;17.33;77.31
41102;BME280;26845;50.190;19.178;2022-07-04T04:57:16;98785.16;;;17.46;77.50
41102;BME280;26845;50.190;19.178;2022-07-04T04:59:42;98791.38;;;17.62;77.56
41102;BME280;26845;50.190;19.178;2022-07-04T05:02:08;98794.42;;;17.72;77.84
41102;BME280;26845;50.190;19.178;2022-07-04T05:04:34;98784.22;;;17.90;77.85
41102;BME280;26845;50.190;19.178;2022-07-04T05:07:00;98785.00;;;18.06;77.92
41102;BME280;26845;50.190;19.178;2022-07-04T05:09:26;98776.66;;;18.19;78.10
41102;BME280;26845;50.190;19.178;2022-07-04T05:11:52;98781.92;;;18.40;78.08
41102;BME280;26845;50.190;19.178;2022-07-04T05:14:18;98787.56;;;18.60;78.09
41102;BME280;26845;50.190;19.178;2022-07-04T05:16:44;98787.13;;;18.77;77.81
41102;BME280;26845;50.190;19.178;2022-07-04T05:19:10;98785.85;;;18.94;77.83
41102;BME280;26845;50.190;19.178;2022-07-04T05:21:36;98786.72;;;19.08;77.86
41102;BME280;26845;50.190;19.178;2022-07-04T05:24:02;98782.20;;;19.26;77.86
41102;BME280;26845;50.190;19.178;2022-07-04T05:26:29;98792.50;;;19.38;77.60
41102;BME280;26845;50.190;19.178;2022-07-04T05:28:54;98791.91;;;19.52;77.75
41102;BME280;26845;50.190;19.178;2022-07-04T05:31:25;98792.81;;;19.69;77.71
41102;BME280;26845;50.190;19.178;2022-07-04T05:33:51;98808.50;;;19.80;77.29
41102;BME280;26845;50.190;19.178;2022-07-04T05:36:18;98803.89;;;19.95;77.13
41102;BME280;26845;50.190;19.178;2022-07-04T05:38:44;98812.32;;;20.05;76.79
41102;BME280;26845;50.190;19.178;2022-07-04T05:41:10;98814.58;;;20.09;76.60
41102;BME280;26845;50.190;19.178;2022-07-04T05:43:37;98819.75;;;20.16;77.21
41102;BME280;26845;50.190;19.178;2022-07-04T05:46:02;98816.00;;;20.22;76.81
41102;BME280;26845;50.190;19.178;2022-07-04T05:48:29;98811.20;;;20.26;76.55
41102;BME280;26845;50.190;19.178;2022-07-04T05:50:55;98805.11;;;20.37;76.97
41102;BME280;26845;50.190;19.178;2022-07-04T05:53:21;98798.11;;;20.54;76.34
41102;BME280;26845;50.190;19.178;2022-07-04T05:55:47;98801.47;;;20.63;76.19
41102;BME280;26845;50.190;19.178;2022-07-04T05:58:13;98806.39;;;20.70;75.89
41102;BME280;26845;50.190;19.178;2022-07-04T06:00:42;98801.05;;;20.78;76.05
41102;BME280;26845;50.190;19.178;2022-07-04T06:03:08;98791.45;;;20.86;75.90
41102;BME280;26845;50.190;19.178;2022-07-04T06:05:34;98790.20;;;21.01;76.00
41102;BME280;26845;50.190;19.178;2022-07-04T06:08:00;98784.88;;;21.13;75.63
41102;BME280;26845;50.190;19.178;2022-07-04T06:10:27;98773.28;;;21.25;75.57
41102;BME280;26845;50.190;19.178;2022-07-04T06:12:53;98773.98;;;21.35;75.59
41102;BME280;26845;50.190;19.178;2022-07-04T06:15:19;98775.38;;;21.52;75.68
41102;BME280;26845;50.190;19.178;2022-07-04T06:17:46;98767.84;;;21.70;75.58
41102;BME280;26845;50.190;19.178;2022-07-04T06:20:12;98773.42;;;21.87;75.32
41102;BME280;26845;50.190;19.178;2022-07-04T06:22:43;98770.50;;;22.04;75.04
41102;BME280;26845;50.190;19.178;2022-07-04T06:25:15;98772.84;;;22.19;74.93
41102;BME280;26845;50.190;19.178;2022-07-04T06:27:44;98778.20;;;22.38;75.11
41102;BME280;26845;50.190;19.178;2022-07-04T06:30:15;98776.25;;;22.57;74.56
41102;BME280;26845;50.190;19.178;2022-07-04T06:32:51;98774.50;;;22.69;73.85
41102;BME280;26845;50.190;19.178;2022-07-04T06:35:17;98771.25;;;22.71;73.29
41102;BME280;26845;50.190;19.178;2022-07-04T06:38:06;98787.45;;;22.74;73.66
41102;BME280;26845;50.190;19.178;2022-07-04T06:40:33;98785.46;;;22.81;73.61
41102;BME280;26845;50.190;19.178;2022-07-04T06:43:02;98786.98;;;23.03;73.65
41102;BME280;26845;50.190;19.178;2022-07-04T06:45:29;98789.46;;;23.26;73.63
41102;BME280;26845;50.190;19.178;2022-07-04T06:47:55;98793.92;;;23.45;73.05
41102;BME280;26845;50.190;19.178;2022-07-04T06:50:21;98794.33;;;23.50;71.28
41102;BME280;26845;50.190;19.178;2022-07-04T06:52:50;98799.20;;;23.46;71.08
41102;BME280;26845;50.190;19.178;2022-07-04T06:55:34;98792.91;;;23.50;70.40
41102;BME280;26845;50.190;19.178;2022-07-04T06:58:01;98790.70;;;23.61;71.54
41102;BME280;26845;50.190;19.178;2022-07-04T07:00:27;98789.30;;;23.82;71.04
41102;BME280;26845;50.190;19.178;2022-07-04T07:02:57;98784.23;;;23.99;70.78
41102;BME280;26845;50.190;19.178;2022-07-04T07:05:25;98777.08;;;24.21;71.08
41102;BME280;26845;50.190;19.178;2022-07-04T07:07:51;98779.88;;;24.46;70.40
41102;BME280;26845;50.190;19.178;2022-07-04T07:10:17;98786.30;;;24.68;70.54
41102;BME280;26845;50.190;19.178;2022-07-04T07:12:43;98785.78;;;24.91;69.64
41102;BME280;26845;50.190;19.178;2022-07-04T07:15:12;98788.77;;;25.03;69.41
41102;BME280;26845;50.190;19.178;2022-07-04T07:17:43;98789.91;;;25.20;69.32
41102;BME280;26845;50.190;19.178;2022-07-04T07:20:07;98784.06;;;25.41;68.63
41102;BME280;26845;50.190;19.178;2022-07-04T07:22:34;98790.95;;;25.44;66.93
41102;BME280;26845;50.190;19.178;2022-07-04T07:25:00;98783.66;;;25.43;67.11
41102;BME280;26845;50.190;19.178;2022-07-04T07:27:26;98781.73;;;25.55;67.11
41102;BME280;26845;50.190;19.178;2022-07-04T07:29:52;98772.19;;;25.79;67.80
41102;BME280;26845;50.190;19.178;2022-07-04T07:32:21;98778.44;;;26.09;66.97
41102;BME280;26845;50.190;19.178;2022-07-04T07:34:47;98774.75;;;26.31;66.18
41102;BME280;26845;50.190;19.178;2022-07-04T07:37:13;98775.40;;;26.45;65.90
41102;BME280;26845;50.190;19.178;2022-07-04T07:39:38;98770.75;;;26.62;65.31
41102;BME280;26845;50.190;19.178;2022-07-04T07:42:04;98781.69;;;26.67;64.04
41102;BME280;26845;50.190;19.178;2022-07-04T07:44:30;98779.81;;;26.69;63.11
41102;BME280;26845;50.190;19.178;2022-07-04T07:46:56;98780.67;;;26.66;62.48
41102;BME280;26845;50.190;19.178;2022-07-04T07:49:22;98783.75;;;26.63;63.23
41102;BME280;26845;50.190;19.178;2022-07-04T07:51:49;98783.11;;;26.67;59.69
41102;BME280;26845;50.190;19.178;2022-07-04T07:54:17;98779.92;;;26.62;61.09
41102;BME280;26845;50.190;19.178;2022-07-04T07:56:43;98789.38;;;26.71;61.99
41102;BME280;26845;50.190;19.178;2022-07-04T07:59:09;98780.17;;;26.90;61.50
41102;BME280;26845;50.190;19.178;2022-07-04T08:01:35;98776.77;;;27.14;62.13
41102;BME280;26845;50.190;19.178;2022-07-04T08:04:02;98782.00;;;27.34;59.53
41102;BME280;26845;50.190;19.178;2022-07-04T08:06:46;98777.00;;;27.42;60.02
41102;BME280;26845;50.190;19.178;2022-07-04T08:09:12;98776.13;;;27.45;59.70
41102;BME280;26845;50.190;19.178;2022-07-04T08:11:40;98787.39;;;27.68;59.65
41102;BME280;26845;50.190;19.178;2022-07-04T08:14:07;98791.12;;;27.65;56.13
41102;BME280;26845;50.190;19.178;2022-07-04T08:16:34;98791.65;;;27.44;55.69
41102;BME280;26845;50.190;19.178;2022-07-04T08:19:00;98782.63;;;27.34;52.50
41102;BME280;26845;50.190;19.178;2022-07-04T08:21:27;98781.37;;;27.35;55.06
41102;BME280;26845;50.190;19.178;2022-07-04T08:23:53;98772.62;;;27.49;56.26
41102;BME280;26845;50.190;19.178;2022-07-04T08:26:19;98768.91;;;27.76;54.65
41102;BME280;26845;50.190;19.178;2022-07-04T08:28:45;98766.95;;;27.85;55.42
41102;BME280;26845;50.190;19.178;2022-07-04T08:31:11;98779.68;;;28.03;55.74
41102;BME280;26845;50.190;19.178;2022-07-04T08:33:37;98778.64;;;28.25;54.17
41102;BME280;26845;50.190;19.178;2022-07-04T08:36:03;98781.13;;;28.35;52.98
41102;BME280;26845;50.190;19.178;2022-07-04T08:38:30;98777.77;;;28.29;53.29
41102;BME280;26845;50.190;19.178;2022-07-04T08:40:57;98784.41;;;28.45;54.25
41102;BME280;26845;50.190;19.178;2022-07-04T08:43:30;98782.27;;;28.61;53.55
41102;BME280;26845;50.190;19.178;2022-07-04T08:46:05;98781.20;;;28.91;53.66
41102;BME280;26845;50.190;19.178;2022-07-04T08:48:32;98781.43;;;29.21;53.30
41102;BME280;26845;50.190;19.178;2022-07-04T08:51:12;98782.27;;;29.38;52.63
41102;BME280;26845;50.190;19.178;2022-07-04T08:53:40;98775.44;;;29.31;50.20
41102;BME280;26845;50.190;19.178;2022-07-04T08:56:10;98787.32;;;29.22;50.88
41102;BME280;26845;50.190;19.178;2022-07-04T08:58:56;98788.92;;;29.23;50.94
41102;BME280;26845;50.190;19.178;2022-07-04T09:01:24;98781.95;;;28.96;50.37
41102;BME280;26845;50.190;19.178;2022-07-04T09:03:53;98784.19;;;28.96;49.02
41102;BME280;26845;50.190;19.178;2022-07-04T09:06:19;98779.86;;;29.08;51.12
41102;BME280;26845;50.190;19.178;2022-07-04T09:08:46;98772.52;;;29.43;50.34
41102;BME280;26845;50.190;19.178;2022-07-04T09:11:12;98777.31;;;29.66;50.73
41102;BME280;26845;50.190;19.178;2022-07-04T09:13:40;98777.91;;;29.98;47.38
41102;BME280;26845;50.190;19.178;2022-07-04T09:16:06;98778.64;;;29.78;47.34
41102;BME280;26845;50.190;19.178;2022-07-04T09:18:35;98767.98;;;29.78;49.54
41102;BME280;26845;50.190;19.178;2022-07-04T09:21:06;98764.53;;;30.16;48.97
41102;BME280;26845;50.190;19.178;2022-07-04T09:23:42;98762.19;;;30.36;49.11
41102;BME280;26845;50.190;19.178;2022-07-04T09:26:12;98758.09;;;30.58;48.60
41102;BME280;26845;50.190;19.178;2022-07-04T09:28:45;98746.34;;;30.60;46.25
41102;BME280;26845;50.190;19.178;2022-07-04T09:31:26;98750.53;;;30.43;46.80
41102;BME280;26845;50.190;19.178;2022-07-04T09:34:00;98755.22;;;30.20;43.04
41102;BME280;26845;50.190;19.178;2022-07-04T09:36:26;98759.66;;;29.84;45.48
41102;BME280;26845;50.190;19.178;2022-07-04T09:39:15;98749.37;;;29.87;45.62
41102;BME280;26845;50.190;19.178;2022-07-04T09:42:02;98745.49;;;30.01;45.71
41102;BME280;26845;50.190;19.178;2022-07-04T09:44:43;98741.07;;;30.30;46.57
41102;BME280;26845;50.190;19.178;2022-07-04T09:47:23;98744.69;;;30.67;43.66
41102;BME280;26845;50.190;19.178;2022-07-04T09:50:02;98741.98;;;30.77;46.07
41102;BME280;26845;50.190;19.178;2022-07-04T09:52:31;98736.08;;;30.97;44.90
41102;BME280;26845;50.190;19.178;2022-07-04T09:55:02;98727.16;;;30.99;45.43
41102;BME280;26845;50.190;19.178;2022-07-04T09:57:30;98739.05;;;31.19;43.64
41102;BME280;26845;50.190;19.178;2022-07-04T10:02:47;98735.67;;;31.15;43.96
41102;BME280;26845;50.190;19.178;2022-07-04T10:05:22;98738.73;;;31.17;42.91
41102;BME280;26845;50.190;19.178;2022-07-04T10:07:55;98736.36;;;30.94;42.78
41102;BME280;26845;50.190;19.178;2022-07-04T10:10:34;98729.50;;;30.96;43.74
41102;BME280;26845;50.190;19.178;2022-07-04T10:13:10;98730.45;;;31.19;40.41
41102;BME280;26845;50.190;19.178;2022-07-04T10:15:36;98731.65;;;31.00;40.08
41102;BME280;26845;50.190;19.178;2022-07-04T10:18:04;98730.42;;;30.80;40.99
41102;BME280;26845;50.190;19.178;2022-07-04T10:20:35;98720.58;;;30.94;42.10
41102;BME280;26845;50.190;19.178;2022-07-04T10:23:04;98723.39;;;31.15;41.90
41102;BME280;26845;50.190;19.178;2022-07-04T10:25:30;98722.48;;;31.05;40.25
41102;BME280;26845;50.190;19.178;2022-07-04T10:27:59;98727.16;;;30.78;40.35
41102;BME280;26845;50.190;19.178;2022-07-04T10:30:31;98727.22;;;30.49;39.36
41102;BME280;26845;50.190;19.178;2022-07-04T10:33:00;98734.19;;;30.48;39.27
41102;BME280;26845;50.190;19.178;2022-07-04T10:38:27;98722.88;;;30.57;39.35
41102;BME280;26845;50.190;19.178;2022-07-04T10:41:07;98725.84;;;30.75;40.25
41102;BME280;26845;50.190;19.178;2022-07-04T10:54:30;98721.49;;;31.98;39.16
41102;BME280;26845;50.190;19.178;2022-07-04T10:57:17;98722.77;;;31.97;39.77
41102;BME280;26845;50.190;19.178;2022-07-04T11:18:04;98720.16;;;32.29;34.27
41102;BME280;26845;50.190;19.178;2022-07-04T11:20:34;98713.83;;;32.34;36.18
41102;BME280;26845;50.190;19.178;2022-07-04T11:23:14;98723.56;;;32.15;33.79
41102;BME280;26845;50.190;19.178;2022-07-04T11:25:44;98725.55;;;31.75;35.38
41102;BME280;26845;50.190;19.178;2022-07-04T11:28:22;98713.33;;;31.66;35.11
41102;BME280;26845;50.190;19.178;2022-07-04T11:30:54;98701.58;;;31.73;36.03
41102;BME280;26845;50.190;19.178;2022-07-04T11:33:22;98704.64;;;32.26;36.34
41102;BME280;26845;50.190;19.178;2022-07-04T11:38:51;98694.31;;;32.73;35.54
41102;BME280;26845;50.190;19.178;2022-07-04T11:44:33;98689.35;;;33.00;36.11
41102;BME280;26845;50.190;19.178;2022-07-04T11:47:34;98689.96;;;33.31;34.98
41102;BME280;26845;50.190;19.178;2022-07-04T11:50:03;98688.70;;;33.36;34.29
41102;BME280;26845;50.190;19.178;2022-07-04T11:55:10;98678.08;;;33.24;33.19
41102;BME280;26845;50.190;19.178;2022-07-04T11:57:39;98683.59;;;33.50;34.77
41102;BME280;26845;50.190;19.178;2022-07-04T12:00:14;98677.47;;;33.88;33.83
41102;BME280;26845;50.190;19.178;2022-07-04T12:02:47;98679.55;;;33.97;33.85
41102;BME280;26845;50.190;19.178;2022-07-04T12:05:15;98666.52;;;33.55;32.36
41102;BME280;26845;50.190;19.178;2022-07-04T12:07:45;98669.88;;;33.09;32.76
41102;BME280;26845;50.190;19.178;2022-07-04T12:10:18;98668.63;;;33.14;32.77
41102;BME280;26845;50.190;19.178;2022-07-04T12:12:53;98665.17;;;33.33;33.58
41102;BME280;26845;50.190;19.178;2022-07-04T12:15:43;98667.18;;;33.59;33.64
41102;BME280;26845;50.190;19.178;2022-07-04T12:18:21;98663.55;;;33.96;33.97
41102;BME280;26845;50.190;19.178;2022-07-04T12:20:52;98661.94;;;34.32;33.66
41102;BME280;26845;50.190;19.178;2022-07-04T12:23:20;98666.27;;;34.59;33.74
41102;BME280;26845;50.190;19.178;2022-07-04T12:25:49;98673.91;;;34.76;33.05
41102;BME280;26845;50.190;19.178;2022-07-04T12:28:17;98664.38;;;34.99;32.36
41102;BME280;26845;50.190;19.178;2022-07-04T12:30:50;98678.89;;;34.71;30.48
41102;BME280;26845;50.190;19.178;2022-07-04T12:33:23;98671.23;;;33.99;31.63
41102;BME280;26845;50.190;19.178;2022-07-04T12:35:58;98681.85;;;33.48;31.42
41102;BME280;26845;50.190;19.178;2022-07-04T12:38:34;98683.84;;;33.24;29.93
41102;BME280;26845;50.190;19.178;2022-07-04T12:48:58;98679.59;;;32.10;32.34
41102;BME280;26845;50.190;19.178;2022-07-04T12:51:30;98677.50;;;32.06;31.08
41102;BME280;26845;50.190;19.178;2022-07-04T12:53:59;98683.06;;;32.04;31.24
41102;BME280;26845;50.190;19.178;2022-07-04T12:56:38;98678.45;;;32.07;31.34
41102;BME280;26845;50.190;19.178;2022-07-04T12:59:16;98682.24;;;31.99;30.18
41102;BME280;26845;50.190;19.178;2022-07-04T13:01:45;98673.64;;;32.04;30.29
41102;BME280;26845;50.190;19.178;2022-07-04T13:04:13;98676.89;;;31.93;30.87
41102;BME280;26845;50.190;19.178;2022-07-04T13:06:39;98669.52;;;32.05;32.60
41102;BME280;26845;50.190;19.178;2022-07-04T13:09:06;98662.66;;;32.29;32.60
41102;BME280;26845;50.190;19.178;2022-07-04T13:11:35;98671.13;;;32.28;28.54
41102;BME280;26845;50.190;19.178;2022-07-04T13:14:23;98668.89;;;32.10;32.17
41102;BME280;26845;50.190;19.178;2022-07-04T13:16:49;98666.93;;;32.24;31.11
41102;BME280;26845;50.190;19.178;2022-07-04T13:19:15;98671.62;;;32.48;31.90
41102;BME280;26845;50.190;19.178;2022-07-04T13:21:42;98668.91;;;32.81;32.22
41102;BME280;26845;50.190;19.178;2022-07-04T13:24:08;98671.64;;;32.80;29.16
41102;BME280;26845;50.190;19.178;2022-07-04T13:26:34;98671.94;;;32.77;31.51
41102;BME280;26845;50.190;19.178;2022-07-04T13:29:01;98661.55;;;33.06;31.67
41102;BME280;26845;50.190;19.178;2022-07-04T13:31:28;98669.25;;;32.83;29.99
41102;BME280;26845;50.190;19.178;2022-07-04T13:33:54;98668.89;;;32.50;30.39
41102;BME280;26845;50.190;19.178;2022-07-04T13:36:20;98666.91;;;32.20;30.30
41102;BME280;26845;50.190;19.178;2022-07-04T13:38:46;98678.04;;;31.96;29.37
41102;BME280;26845;50.190;19.178;2022-07-04T13:41:18;98668.94;;;31.63;30.90
41102;BME280;26845;50.190;19.178;2022-07-04T13:43:48;98668.97;;;31.67;32.12
41102;BME280;26845;50.190;19.178;2022-07-04T13:46:14;98672.75;;;31.77;31.82
41102;BME280;26845;50.190;19.178;2022-07-04T13:48:40;98675.98;;;31.96;32.63